sensor_id;sensor_type;location;lat;lon;timestamp;P1;durP1;ratioP1;P2;durP2;ratioP2
63943;SDS011;50121;51.218;7.664;2023-12-22T00:01:23;7.80;;;4.63;;
63943;SDS011;50121;51.218;7.664;2023-12-22T00:03:51;10.20;;;4.43;;
63943;SDS011;50121;51.218;7.664;2023-12-22T00:06:18;6.05;;;4.45;;
63943;SDS011;50121;51.218;7.664;2023-12-22T00:08:46;5.47;;;4.22;;
63943;SDS011;50121;51.218;7.664;2023-12-22T00:11:15;8.80;;;5.03;;
63943;SDS011;50121;51.218;7.664;2023-12-22T00:13:43;8.00;;;4.63;;
63943;SDS011;50121;51.218;7.664;2023-12-22T00:16:10;6.60;;;5.03;;
63943;SDS011;50121;51.218;7.664;2023-12-22T00:18:38;5.55;;;5.03;;
63943;SDS011;50121;51.218;7.664;2023-12-22T00:21:09;5.82;;;4.78;;
63943;SDS011;50121;51.218;7.664;2023-12-22T00:23:37;11.63;;;4.97;;
63943;SDS011;50121;51.218;7.664;2023-12-22T00:26:05;8.57;;;4.63;;
63943;SDS011;50121;51.218;7.664;2023-12-22T00:28:32;8.35;;;4.68;;
63943;SDS011;50121;51.218;7.664;2023-12-22T00:31:00;10.18;;;5.13;;
63943;SDS011;50121;51.218;7.664;2023-12-22T00:33:28;5.30;;;4.43;;
63943;SDS011;50121;51.218;7.664;2023-12-22T00:35:55;9.95;;;4.88;;
63943;SDS011;50121;51.218;7.664;2023-12-22T00:38:23;6.78;;;4.18;;
63943;SDS011;50121;51.218;7.664;2023-12-22T00:40:50;6.97;;;4.57;;
63943;SDS011;50121;51.218;7.664;2023-12-22T00:43:18;6.07;;;5.00;;
63943;SDS011;50121;51.218;7.664;2023-12-22T00:45:46;12.95;;;4.57;;
63943;SDS011;50121;51.218;7.664;2023-12-22T00:48:13;6.88;;;4.10;;
63943;SDS011;50121;51.218;7.664;2023-12-22T00:50:43;8.45;;;4.32;;
63943;SDS011;50121;51.218;7.664;2023-12-22T00:53:10;4.38;;;3.95;;
63943;SDS011;50121;51.218;7.664;2023-12-22T00:55:38;9.20;;;4.10;;
63943;SDS011;50121;51.218;7.664;2023-12-22T00:58:06;4.90;;;3.80;;
63943;SDS011;50121;51.218;7.664;2023-12-22T01:00:33;11.00;;;4.10;;
63943;SDS011;50121;51.218;7.664;2023-12-22T01:03:01;7.90;;;4.20;;
63943;SDS011;50121;51.218;7.664;2023-12-22T01:05:29;10.35;;;4.57;;
63943;SDS011;50121;51.218;7.664;2023-12-22T01:07:57;6.70;;;3.80;;
63943;SDS011;50121;51.218;7.664;2023-12-22T01:10:24;11.20;;;5.35;;
63943;SDS011;50121;51.218;7.664;2023-12-22T01:12:52;5.13;;;3.80;;
63943;SDS011;50121;51.218;7.664;2023-12-22T01:15:20;12.20;;;4.07;;
63943;SDS011;50121;51.218;7.664;2023-12-22T01:17:47;8.85;;;4.30;;
63943;SDS011;50121;51.218;7.664;2023-12-22T01:20:15;12.13;;;4.00;;
63943;SDS011;50121;51.218;7.664;2023-12-22T01:22:43;8.52;;;3.83;;
63943;SDS011;50121;51.218;7.664;2023-12-22T01:25:10;11.25;;;4.20;;
63943;SDS011;50121;51.218;7.664;2023-12-22T01:27:38;9.13;;;4.07;;
63943;SDS011;50121;51.218;7.664;2023-12-22T01:30:06;8.10;;;4.10;;
63943;SDS011;50121;51.218;7.664;2023-12-22T01:32:33;12.20;;;4.10;;
63943;SDS011;50121;51.218;7.664;2023-12-22T01:35:03;8.02;;;3.95;;
63943;SDS011;50121;51.218;7.664;2023-12-22T01:37:36;7.35;;;3.78;;
63943;SDS011;50121;51.218;7.664;2023-12-22T01:40:04;10.82;;;4.20;;
63943;SDS011;50121;51.218;7.664;2023-12-22T01:42:32;6.88;;;3.67;;
63943;SDS011;50121;51.218;7.664;2023-12-22T01:45:00;6.78;;;3.63;;
63943;SDS011;50121;51.218;7.664;2023-12-22T01:47:27;10.55;;;4.35;;
63943;SDS011;50121;51.218;7.664;2023-12-22T01:49:55;7.72;;;4.30;;
63943;SDS011;50121;51.218;7.664;2023-12-22T01:52:22;5.82;;;3.63;;
63943;SDS011;50121;51.218;7.664;2023-12-22T01:54:50;8.43;;;4.18;;
63943;SDS011;50121;51.218;7.664;2023-12-22T01:57:18;6.25;;;3.90;;
63943;SDS011;50121;51.218;7.664;2023-12-22T01:59:46;9.70;;;4.30;;
63943;SDS011;50121;51.218;7.664;2023-12-22T02:02:14;7.43;;;4.50;;
63943;SDS011;50121;51.218;7.664;2023-12-22T02:04:41;8.45;;;4.82;;
63943;SDS011;50121;51.218;7.664;2023-12-22T02:07:09;9.30;;;5.10;;
63943;SDS011;50121;51.218;7.664;2023-12-22T02:09:37;10.95;;;5.65;;
63943;SDS011;50121;51.218;7.664;2023-12-22T02:12:05;5.07;;;4.70;;
63943;SDS011;50121;51.218;7.664;2023-12-22T02:14:32;5.03;;;4.50;;
63943;SDS011;50121;51.218;7.664;2023-12-22T02:19:41;12.05;;;5.82;;
63943;SDS011;50121;51.218;7.664;2023-12-22T02:22:09;4.70;;;4.30;;
63943;SDS011;50121;51.218;7.664;2023-12-22T02:24:38;7.28;;;4.60;;
63943;SDS011;50121;51.218;7.664;2023-12-22T02:29:37;5.10;;;4.68;;
63943;SDS011;50121;51.218;7.664;2023-12-22T02:32:10;6.43;;;4.45;;
63943;SDS011;50121;51.218;7.664;2023-12-22T02:34:39;4.75;;;4.35;;
63943;SDS011;50121;51.218;7.664;2023-12-22T02:37:09;5.15;;;4.65;;
63943;SDS011;50121;51.218;7.664;2023-12-22T02:39:38;4.45;;;4.13;;
63943;SDS011;50121;51.218;7.664;2023-12-22T02:42:06;4.70;;;4.28;;
63943;SDS011;50121;51.218;7.664;2023-12-22T02:44:33;4.50;;;4.20;;
63943;SDS011;50121;51.218;7.664;2023-12-22T02:47:01;6.05;;;4.00;;
63943;SDS011;50121;51.218;7.664;2023-12-22T02:49:29;4.38;;;4.00;;
63943;SDS011;50121;51.218;7.664;2023-12-22T02:51:56;5.28;;;4.28;;
63943;SDS011;50121;51.218;7.664;2023-12-22T02:54:24;4.90;;;3.75;;
63943;SDS011;50121;51.218;7.664;2023-12-22T02:56:51;4.55;;;3.80;;
63943;SDS011;50121;51.218;7.664;2023-12-22T02:59:19;6.28;;;3.95;;
63943;SDS011;50121;51.218;7.664;2023-12-22T03:01:46;6.80;;;3.50;;
63943;SDS011;50121;51.218;7.664;2023-12-22T03:04:14;4.00;;;3.58;;
63943;SDS011;50121;51.218;7.664;2023-12-22T03:06:43;6.70;;;3.85;;
63943;SDS011;50121;51.218;7.664;2023-12-22T03:09:11;3.65;;;3.35;;
63943;SDS011;50121;51.218;7.664;2023-12-22T03:11:38;4.97;;;3.55;;
63943;SDS011;50121;51.218;7.664;2023-12-22T03:14:06;4.35;;;3.95;;
63943;SDS011;50121;51.218;7.664;2023-12-22T03:16:33;6.43;;;3.60;;
63943;SDS011;50121;51.218;7.664;2023-12-22T03:19:01;4.63;;;3.85;;
63943;SDS011;50121;51.218;7.664;2023-12-22T03:21:28;6.30;;;3.90;;
63943;SDS011;50121;51.218;7.664;2023-12-22T03:23:56;4.93;;;3.42;;
63943;SDS011;50121;51.218;7.664;2023-12-22T03:26:26;5.07;;;3.42;;
63943;SDS011;50121;51.218;7.664;2023-12-22T03:28:54;4.35;;;3.38;;
63943;SDS011;50121;51.218;7.664;2023-12-22T03:31:21;7.57;;;3.38;;
63943;SDS011;50121;51.218;7.664;2023-12-22T03:33:49;4.70;;;3.33;;
63943;SDS011;50121;51.218;7.664;2023-12-22T03:36:16;7.78;;;3.50;;
63943;SDS011;50121;51.218;7.664;2023-12-22T03:38:44;4.65;;;3.30;;
63943;SDS011;50121;51.218;7.664;2023-12-22T03:41:11;8.50;;;3.83;;
63943;SDS011;50121;51.218;7.664;2023-12-22T03:43:39;10.90;;;3.70;;
63943;SDS011;50121;51.218;7.664;2023-12-22T03:46:07;7.15;;;3.47;;
63943;SDS011;50121;51.218;7.664;2023-12-22T03:48:34;5.22;;;3.50;;
63943;SDS011;50121;51.218;7.664;2023-12-22T03:51:02;12.05;;;4.43;;
63943;SDS011;50121;51.218;7.664;2023-12-22T03:53:30;8.15;;;3.78;;
63943;SDS011;50121;51.218;7.664;2023-12-22T03:55:57;7.60;;;3.97;;
63943;SDS011;50121;51.218;7.664;2023-12-22T03:58:25;6.25;;;3.72;;
63943;SDS011;50121;51.218;7.664;2023-12-22T04:00:52;7.82;;;3.22;;
63943;SDS011;50121;51.218;7.664;2023-12-22T04:03:20;5.82;;;4.00;;
63943;SDS011;50121;51.218;7.664;2023-12-22T04:05:48;4.13;;;3.83;;
63943;SDS011;50121;51.218;7.664;2023-12-22T04:08:15;5.82;;;3.47;;
63943;SDS011;50121;51.218;7.664;2023-12-22T04:10:43;9.68;;;3.80;;
63943;SDS011;50121;51.218;7.664;2023-12-22T04:13:11;5.32;;;3.78;;
63943;SDS011;50121;51.218;7.664;2023-12-22T04:15:38;5.80;;;3.83;;
63943;SDS011;50121;51.218;7.664;2023-12-22T04:18:06;4.82;;;3.38;;
63943;SDS011;50121;51.218;7.664;2023-12-22T04:20:34;5.10;;;3.83;;
63943;SDS011;50121;51.218;7.664;2023-12-22T04:23:02;8.10;;;3.80;;
63943;SDS011;50121;51.218;7.664;2023-12-22T04:25:29;9.18;;;3.90;;
63943;SDS011;50121;51.218;7.664;2023-12-22T04:27:57;11.10;;;4.20;;
63943;SDS011;50121;51.218;7.664;2023-12-22T04:30:25;9.27;;;4.43;;
63943;SDS011;50121;51.218;7.664;2023-12-22T04:32:56;10.52;;;4.38;;
63943;SDS011;50121;51.218;7.664;2023-12-22T04:35:23;8.02;;;4.20;;
63943;SDS011;50121;51.218;7.664;2023-12-22T04:37:51;9.60;;;4.10;;
63943;SDS011;50121;51.218;7.664;2023-12-22T04:40:19;7.78;;;3.78;;
63943;SDS011;50121;51.218;7.664;2023-12-22T04:42:46;12.23;;;4.78;;
63943;SDS011;50121;51.218;7.664;2023-12-22T04:45:14;11.98;;;3.90;;
63943;SDS011;50121;51.218;7.664;2023-12-22T04:47:43;11.52;;;4.53;;
63943;SDS011;50121;51.218;7.664;2023-12-22T04:50:11;14.25;;;5.93;;
63943;SDS011;50121;51.218;7.664;2023-12-22T04:52:39;14.73;;;4.90;;
63943;SDS011;50121;51.218;7.664;2023-12-22T04:55:07;9.75;;;5.13;;
63943;SDS011;50121;51.218;7.664;2023-12-22T04:57:34;15.52;;;5.30;;
63943;SDS011;50121;51.218;7.664;2023-12-22T05:00:02;11.93;;;5.63;;
63943;SDS011;50121;51.218;7.664;2023-12-22T05:02:30;11.90;;;4.97;;
63943;SDS011;50121;51.218;7.664;2023-12-22T05:04:58;12.98;;;4.93;;
63943;SDS011;50121;51.218;7.664;2023-12-22T05:07:25;7.88;;;4.28;;
63943;SDS011;50121;51.218;7.664;2023-12-22T05:09:54;4.82;;;4.32;;
63943;SDS011;50121;51.218;7.664;2023-12-22T05:12:22;9.05;;;4.22;;
63943;SDS011;50121;51.218;7.664;2023-12-22T05:14:49;8.68;;;4.40;;
63943;SDS011;50121;51.218;7.664;2023-12-22T05:17:17;5.03;;;3.78;;
63943;SDS011;50121;51.218;7.664;2023-12-22T05:19:45;6.30;;;4.00;;
63943;SDS011;50121;51.218;7.664;2023-12-22T05:22:12;5.60;;;4.00;;
63943;SDS011;50121;51.218;7.664;2023-12-22T05:24:40;7.28;;;4.00;;
63943;SDS011;50121;51.218;7.664;2023-12-22T05:27:08;5.57;;;4.05;;
63943;SDS011;50121;51.218;7.664;2023-12-22T05:29:36;6.10;;;4.00;;
63943;SDS011;50121;51.218;7.664;2023-12-22T05:32:03;8.85;;;4.50;;
63943;SDS011;50121;51.218;7.664;2023-12-22T05:34:31;6.57;;;4.45;;
63943;SDS011;50121;51.218;7.664;2023-12-22T05:36:59;4.18;;;3.88;;
63943;SDS011;50121;51.218;7.664;2023-12-22T05:39:27;4.30;;;3.88;;
63943;SDS011;50121;51.218;7.664;2023-12-22T05:41:54;3.90;;;3.58;;
63943;SDS011;50121;51.218;7.664;2023-12-22T05:44:22;4.38;;;3.97;;
63943;SDS011;50121;51.218;7.664;2023-12-22T05:46:50;4.40;;;4.00;;
63943;SDS011;50121;51.218;7.664;2023-12-22T05:49:18;9.18;;;4.18;;
63943;SDS011;50121;51.218;7.664;2023-12-22T05:51:46;10.15;;;4.15;;
63943;SDS011;50121;51.218;7.664;2023-12-22T05:54:13;7.13;;;4.88;;
63943;SDS011;50121;51.218;7.664;2023-12-22T05:56:41;6.38;;;4.28;;
63943;SDS011;50121;51.218;7.664;2023-12-22T05:59:09;8.05;;;4.15;;
63943;SDS011;50121;51.218;7.664;2023-12-22T06:01:36;6.88;;;4.47;;
63943;SDS011;50121;51.218;7.664;2023-12-22T06:04:04;10.23;;;5.00;;
63943;SDS011;50121;51.218;7.664;2023-12-22T06:06:32;5.78;;;4.60;;
63943;SDS011;50121;51.218;7.664;2023-12-22T06:09:00;7.10;;;4.45;;
63943;SDS011;50121;51.218;7.664;2023-12-22T06:11:27;10.75;;;4.40;;
63943;SDS011;50121;51.218;7.664;2023-12-22T06:13:54;11.40;;;4.68;;
63943;SDS011;50121;51.218;7.664;2023-12-22T06:16:22;8.15;;;4.38;;
63943;SDS011;50121;51.218;7.664;2023-12-22T06:18:49;7.15;;;3.95;;
63943;SDS011;50121;51.218;7.664;2023-12-22T06:21:17;8.73;;;4.13;;
63943;SDS011;50121;51.218;7.664;2023-12-22T06:23:45;9.60;;;4.28;;
63943;SDS011;50121;51.218;7.664;2023-12-22T06:26:12;7.50;;;4.07;;
63943;SDS011;50121;51.218;7.664;2023-12-22T06:28:40;4.57;;;3.90;;
63943;SDS011;50121;51.218;7.664;2023-12-22T06:31:08;9.25;;;4.90;;
63943;SDS011;50121;51.218;7.664;2023-12-22T06:33:35;6.72;;;4.47;;
63943;SDS011;50121;51.218;7.664;2023-12-22T06:36:03;7.47;;;4.40;;
63943;SDS011;50121;51.218;7.664;2023-12-22T06:38:31;4.40;;;4.00;;
63943;SDS011;50121;51.218;7.664;2023-12-22T06:40:59;6.25;;;4.55;;
63943;SDS011;50121;51.218;7.664;2023-12-22T06:43:26;6.63;;;4.30;;
63943;SDS011;50121;51.218;7.664;2023-12-22T06:45:54;7.68;;;4.20;;
63943;SDS011;50121;51.218;7.664;2023-12-22T06:48:21;10.00;;;4.63;;
63943;SDS011;50121;51.218;7.664;2023-12-22T06:50:49;6.78;;;3.85;;
63943;SDS011;50121;51.218;7.664;2023-12-22T06:53:16;7.25;;;4.43;;
63943;SDS011;50121;51.218;7.664;2023-12-22T06:55:47;7.13;;;4.03;;
63943;SDS011;50121;51.218;7.664;2023-12-22T06:58:14;5.63;;;3.90;;
63943;SDS011;50121;51.218;7.664;2023-12-22T07:00:42;5.78;;;3.90;;
63943;SDS011;50121;51.218;7.664;2023-12-22T07:03:10;10.32;;;4.60;;
63943;SDS011;50121;51.218;7.664;2023-12-22T07:05:39;8.23;;;4.40;;
63943;SDS011;50121;51.218;7.664;2023-12-22T07:08:07;8.35;;;4.28;;
63943;SDS011;50121;51.218;7.664;2023-12-22T07:10:35;9.07;;;4.78;;
63943;SDS011;50121;51.218;7.664;2023-12-22T07:13:02;9.25;;;4.20;;
63943;SDS011;50121;51.218;7.664;2023-12-22T07:15:30;16.25;;;4.80;;
63943;SDS011;50121;51.218;7.664;2023-12-22T07:17:58;9.40;;;3.80;;
63943;SDS011;50121;51.218;7.664;2023-12-22T07:20:26;8.52;;;4.03;;
63943;SDS011;50121;51.218;7.664;2023-12-22T07:22:53;9.98;;;4.00;;
63943;SDS011;50121;51.218;7.664;2023-12-22T07:25:23;12.98;;;5.20;;
63943;SDS011;50121;51.218;7.664;2023-12-22T07:27:50;10.23;;;3.80;;
63943;SDS011;50121;51.218;7.664;2023-12-22T07:30:19;10.65;;;4.80;;
63943;SDS011;50121;51.218;7.664;2023-12-22T07:32:47;15.98;;;4.85;;
63943;SDS011;50121;51.218;7.664;2023-12-22T07:35:18;9.32;;;4.15;;
63943;SDS011;50121;51.218;7.664;2023-12-22T07:37:46;9.80;;;4.28;;
63943;SDS011;50121;51.218;7.664;2023-12-22T07:40:14;11.02;;;4.40;;
63943;SDS011;50121;51.218;7.664;2023-12-22T07:42:42;19.27;;;6.22;;
63943;SDS011;50121;51.218;7.664;2023-12-22T07:45:11;13.13;;;4.40;;
63943;SDS011;50121;51.218;7.664;2023-12-22T07:47:50;10.65;;;4.32;;
63943;SDS011;50121;51.218;7.664;2023-12-22T07:50:27;11.18;;;4.93;;
63943;SDS011;50121;51.218;7.664;2023-12-22T07:52:54;9.60;;;4.18;;
63943;SDS011;50121;51.218;7.664;2023-12-22T07:55:22;8.52;;;4.97;;
63943;SDS011;50121;51.218;7.664;2023-12-22T07:57:50;10.23;;;4.75;;
63943;SDS011;50121;51.218;7.664;2023-12-22T08:00:17;8.70;;;4.18;;
63943;SDS011;50121;51.218;7.664;2023-12-22T08:02:45;19.10;;;4.72;;
63943;SDS011;50121;51.218;7.664;2023-12-22T08:05:13;12.20;;;4.88;;
63943;SDS011;50121;51.218;7.664;2023-12-22T08:07:41;8.25;;;4.65;;
63943;SDS011;50121;51.218;7.664;2023-12-22T08:10:08;15.75;;;6.22;;
63943;SDS011;50121;51.218;7.664;2023-12-22T08:12:36;14.40;;;5.07;;
63943;SDS011;50121;51.218;7.664;2023-12-22T08:15:04;12.93;;;4.82;;
63943;SDS011;50121;51.218;7.664;2023-12-22T08:17:32;9.82;;;4.90;;
63943;SDS011;50121;51.218;7.664;2023-12-22T08:20:00;14.85;;;5.13;;
63943;SDS011;50121;51.218;7.664;2023-12-22T08:22:28;23.95;;;8.48;;
63943;SDS011;50121;51.218;7.664;2023-12-22T08:25:12;9.82;;;5.03;;
63943;SDS011;50121;51.218;7.664;2023-12-22T08:27:52;8.30;;;4.95;;
63943;SDS011;50121;51.218;7.664;2023-12-22T08:30:20;11.18;;;5.10;;
63943;SDS011;50121;51.218;7.664;2023-12-22T08:32:47;13.50;;;5.18;;
63943;SDS011;50121;51.218;7.664;2023-12-22T08:35:15;11.73;;;4.93;;
63943;SDS011;50121;51.218;7.664;2023-12-22T08:37:43;13.82;;;5.07;;
63943;SDS011;50121;51.218;7.664;2023-12-22T08:40:10;6.05;;;4.13;;
63943;SDS011;50121;51.218;7.664;2023-12-22T08:42:38;13.45;;;4.95;;
63943;SDS011;50121;51.218;7.664;2023-12-22T08:45:06;13.88;;;4.85;;
63943;SDS011;50121;51.218;7.664;2023-12-22T08:47:34;23.80;;;5.80;;
63943;SDS011;50121;51.218;7.664;2023-12-22T08:50:01;12.30;;;5.57;;
63943;SDS011;50121;51.218;7.664;2023-12-22T08:52:31;17.13;;;5.70;;
63943;SDS011;50121;51.218;7.664;2023-12-22T08:54:58;18.40;;;5.38;;
63943;SDS011;50121;51.218;7.664;2023-12-22T08:57:26;14.40;;;5.72;;
63943;SDS011;50121;51.218;7.664;2023-12-22T08:59:54;15.70;;;4.82;;
63943;SDS011;50121;51.218;7.664;2023-12-22T09:02:22;15.63;;;5.13;;
63943;SDS011;50121;51.218;7.664;2023-12-22T09:04:55;12.23;;;4.97;;
63943;SDS011;50121;51.218;7.664;2023-12-22T09:07:23;12.18;;;5.25;;
63943;SDS011;50121;51.218;7.664;2023-12-22T09:09:52;15.65;;;4.80;;
63943;SDS011;50121;51.218;7.664;2023-12-22T09:12:19;20.70;;;5.63;;
63943;SDS011;50121;51.218;7.664;2023-12-22T09:14:47;17.60;;;4.97;;
63943;SDS011;50121;51.218;7.664;2023-12-22T09:17:15;18.42;;;5.72;;
63943;SDS011;50121;51.218;7.664;2023-12-22T09:19:43;21.70;;;6.28;;
63943;SDS011;50121;51.218;7.664;2023-12-22T09:22:10;20.35;;;5.22;;
63943;SDS011;50121;51.218;7.664;2023-12-22T09:24:38;14.98;;;5.45;;
63943;SDS011;50121;51.218;7.664;2023-12-22T09:27:06;24.08;;;5.72;;
63943;SDS011;50121;51.218;7.664;2023-12-22T09:29:34;21.02;;;5.63;;
63943;SDS011;50121;51.218;7.664;2023-12-22T09:32:02;16.30;;;5.65;;
63943;SDS011;50121;51.218;7.664;2023-12-22T09:34:30;17.42;;;6.32;;
63943;SDS011;50121;51.218;7.664;2023-12-22T09:36:58;18.00;;;5.30;;
63943;SDS011;50121;51.218;7.664;2023-12-22T09:39:25;16.52;;;5.78;;
63943;SDS011;50121;51.218;7.664;2023-12-22T09:41:55;16.00;;;5.22;;
63943;SDS011;50121;51.218;7.664;2023-12-22T09:44:23;11.93;;;4.80;;
63943;SDS011;50121;51.218;7.664;2023-12-22T09:46:51;11.07;;;4.70;;
63943;SDS011;50121;51.218;7.664;2023-12-22T09:49:19;8.10;;;4.32;;
63943;SDS011;50121;51.218;7.664;2023-12-22T09:51:47;8.30;;;4.43;;
63943;SDS011;50121;51.218;7.664;2023-12-22T09:54:14;12.18;;;4.88;;
63943;SDS011;50121;51.218;7.664;2023-12-22T09:56:42;8.90;;;4.95;;
63943;SDS011;50121;51.218;7.664;2023-12-22T09:59:12;14.27;;;5.05;;
63943;SDS011;50121;51.218;7.664;2023-12-22T10:01:44;9.52;;;4.70;;
63943;SDS011;50121;51.218;7.664;2023-12-22T10:04:15;11.85;;;5.25;;
63943;SDS011;50121;51.218;7.664;2023-12-22T10:06:43;10.73;;;5.07;;
63943;SDS011;50121;51.218;7.664;2023-12-22T10:09:12;12.80;;;4.93;;
63943;SDS011;50121;51.218;7.664;2023-12-22T10:11:42;10.35;;;4.97;;
63943;SDS011;50121;51.218;7.664;2023-12-22T10:14:10;14.88;;;5.82;;
63943;SDS011;50121;51.218;7.664;2023-12-22T10:16:40;10.30;;;5.32;;
63943;SDS011;50121;51.218;7.664;2023-12-22T10:19:08;14.30;;;5.55;;
63943;SDS011;50121;51.218;7.664;2023-12-22T10:21:36;16.58;;;5.72;;
63943;SDS011;50121;51.218;7.664;2023-12-22T10:24:04;18.05;;;8.60;;
63943;SDS011;50121;51.218;7.664;2023-12-22T10:26:31;21.30;;;7.47;;
63943;SDS011;50121;51.218;7.664;2023-12-22T10:29:00;14.23;;;5.32;;
63943;SDS011;50121;51.218;7.664;2023-12-22T10:31:28;10.95;;;5.63;;
63943;SDS011;50121;51.218;7.664;2023-12-22T10:34:05;9.90;;;5.80;;
63943;SDS011;50121;51.218;7.664;2023-12-22T10:36:33;10.30;;;4.50;;
63943;SDS011;50121;51.218;7.664;2023-12-22T10:39:01;7.97;;;4.72;;
63943;SDS011;50121;51.218;7.664;2023-12-22T10:41:29;11.27;;;7.03;;
63943;SDS011;50121;51.218;7.664;2023-12-22T10:43:57;9.50;;;4.82;;
63943;SDS011;50121;51.218;7.664;2023-12-22T10:46:25;9.77;;;4.75;;
63943;SDS011;50121;51.218;7.664;2023-12-22T10:48:53;5.00;;;4.60;;
63943;SDS011;50121;51.218;7.664;2023-12-22T10:51:21;7.78;;;5.03;;
63943;SDS011;50121;51.218;7.664;2023-12-22T10:53:48;5.53;;;4.88;;
63943;SDS011;50121;51.218;7.664;2023-12-22T10:56:16;7.63;;;4.80;;
63943;SDS011;50121;51.218;7.664;2023-12-22T10:58:44;4.80;;;4.40;;
63943;SDS011;50121;51.218;7.664;2023-12-22T11:01:13;6.38;;;5.03;;
63943;SDS011;50121;51.218;7.664;2023-12-22T11:03:42;4.97;;;4.45;;
63943;SDS011;50121;51.218;7.664;2023-12-22T11:06:12;7.13;;;4.30;;
63943;SDS011;50121;51.218;7.664;2023-12-22T11:08:43;5.65;;;5.10;;
63943;SDS011;50121;51.218;7.664;2023-12-22T11:11:16;7.72;;;4.30;;
63943;SDS011;50121;51.218;7.664;2023-12-22T11:13:43;9.98;;;6.68;;
63943;SDS011;50121;51.218;7.664;2023-12-22T11:16:11;5.18;;;4.68;;
63943;SDS011;50121;51.218;7.664;2023-12-22T11:18:39;6.95;;;5.20;;
63943;SDS011;50121;51.218;7.664;2023-12-22T11:21:08;12.02;;;5.63;;
63943;SDS011;50121;51.218;7.664;2023-12-22T11:23:37;6.80;;;5.28;;
63943;SDS011;50121;51.218;7.664;2023-12-22T11:26:05;7.57;;;5.22;;
63943;SDS011;50121;51.218;7.664;2023-12-22T11:28:33;6.18;;;4.85;;
63943;SDS011;50121;51.218;7.664;2023-12-22T11:31:02;6.55;;;5.07;;
63943;SDS011;50121;51.218;7.664;2023-12-22T11:33:29;5.80;;;4.80;;
63943;SDS011;50121;51.218;7.664;2023-12-22T11:35:58;5.63;;;5.00;;
63943;SDS011;50121;51.218;7.664;2023-12-22T11:38:26;5.35;;;4.80;;
63943;SDS011;50121;51.218;7.664;2023-12-22T11:40:54;9.07;;;5.20;;
63943;SDS011;50121;51.218;7.664;2023-12-22T11:43:22;4.88;;;4.35;;
63943;SDS011;50121;51.218;7.664;2023-12-22T11:45:50;5.10;;;4.60;;
63943;SDS011;50121;51.218;7.664;2023-12-22T11:48:17;9.48;;;4.50;;
63943;SDS011;50121;51.218;7.664;2023-12-22T11:50:45;6.40;;;4.32;;
63943;SDS011;50121;51.218;7.664;2023-12-22T11:53:23;6.80;;;4.47;;
63943;SDS011;50121;51.218;7.664;2023-12-22T11:56:09;5.57;;;4.13;;
63943;SDS011;50121;51.218;7.664;2023-12-22T12:01:18;6.45;;;4.75;;
63943;SDS011;50121;51.218;7.664;2023-12-22T12:03:53;7.32;;;4.95;;
63943;SDS011;50121;51.218;7.664;2023-12-22T12:08:57;7.00;;;5.35;;
63943;SDS011;50121;51.218;7.664;2023-12-22T12:14:13;8.27;;;5.65;;
63943;SDS011;50121;51.218;7.664;2023-12-22T12:16:41;8.80;;;5.20;;
63943;SDS011;50121;51.218;7.664;2023-12-22T12:19:09;8.77;;;5.35;;
63943;SDS011;50121;51.218;7.664;2023-12-22T12:21:39;8.35;;;5.68;;
63943;SDS011;50121;51.218;7.664;2023-12-22T12:24:08;5.75;;;5.25;;
63943;SDS011;50121;51.218;7.664;2023-12-22T12:26:35;8.55;;;5.18;;
63943;SDS011;50121;51.218;7.664;2023-12-22T12:29:03;4.20;;;3.90;;
63943;SDS011;50121;51.218;7.664;2023-12-22T12:31:37;6.45;;;5.00;;
63943;SDS011;50121;51.218;7.664;2023-12-22T12:36:32;6.00;;;4.95;;
63943;SDS011;50121;51.218;7.664;2023-12-22T12:39:07;6.53;;;5.57;;
63943;SDS011;50121;51.218;7.664;2023-12-22T12:41:41;6.60;;;5.90;;
63943;SDS011;50121;51.218;7.664;2023-12-22T12:44:10;11.20;;;8.32;;
63943;SDS011;50121;51.218;7.664;2023-12-22T12:46:39;9.55;;;7.93;;
63943;SDS011;50121;51.218;7.664;2023-12-22T12:49:09;8.57;;;6.60;;
63943;SDS011;50121;51.218;7.664;2023-12-22T12:51:38;6.43;;;5.72;;
63943;SDS011;50121;51.218;7.664;2023-12-22T12:54:06;6.78;;;5.68;;
63943;SDS011;50121;51.218;7.664;2023-12-22T12:56:40;5.45;;;5.00;;
63943;SDS011;50121;51.218;7.664;2023-12-22T12:59:08;5.80;;;5.00;;
63943;SDS011;50121;51.218;7.664;2023-12-22T13:01:39;6.72;;;5.30;;
63943;SDS011;50121;51.218;7.664;2023-12-22T13:04:07;5.60;;;5.10;;
63943;SDS011;50121;51.218;7.664;2023-12-22T13:06:35;5.35;;;4.90;;
63943;SDS011;50121;51.218;7.664;2023-12-22T13:09:09;9.13;;;5.35;;
63943;SDS011;50121;51.218;7.664;2023-12-22T13:11:37;7.90;;;5.32;;
63943;SDS011;50121;51.218;7.664;2023-12-22T13:14:06;5.40;;;5.00;;
63943;SDS011;50121;51.218;7.664;2023-12-22T13:16:34;8.82;;;6.15;;
63943;SDS011;50121;51.218;7.664;2023-12-22T13:19:02;6.65;;;5.22;;
63943;SDS011;50121;51.218;7.664;2023-12-22T13:21:30;5.10;;;4.65;;
63943;SDS011;50121;51.218;7.664;2023-12-22T13:26:37;5.68;;;4.85;;
63943;SDS011;50121;51.218;7.664;2023-12-22T13:29:06;4.75;;;4.30;;
63943;SDS011;50121;51.218;7.664;2023-12-22T13:31:35;4.82;;;4.38;;
63943;SDS011;50121;51.218;7.664;2023-12-22T13:34:03;4.80;;;4.28;;
63943;SDS011;50121;51.218;7.664;2023-12-22T13:36:35;4.53;;;4.22;;
63943;SDS011;50121;51.218;7.664;2023-12-22T13:39:04;4.35;;;4.03;;
63943;SDS011;50121;51.218;7.664;2023-12-22T13:41:35;3.70;;;3.33;;
63943;SDS011;50121;51.218;7.664;2023-12-22T13:44:07;4.90;;;4.50;;
63943;SDS011;50121;51.218;7.664;2023-12-22T13:46:35;4.57;;;4.28;;
63943;SDS011;50121;51.218;7.664;2023-12-22T13:49:03;5.95;;;4.90;;
63943;SDS011;50121;51.218;7.664;2023-12-22T13:52:05;5.25;;;4.75;;
63943;SDS011;50121;51.218;7.664;2023-12-22T13:54:31;7.15;;;6.00;;
63943;SDS011;50121;51.218;7.664;2023-12-22T13:57:00;9.10;;;7.03;;
63943;SDS011;50121;51.218;7.664;2023-12-22T13:59:34;6.07;;;5.47;;
63943;SDS011;50121;51.218;7.664;2023-12-22T14:02:02;7.03;;;5.70;;
63943;SDS011;50121;51.218;7.664;2023-12-22T14:04:30;6.07;;;5.40;;
63943;SDS011;50121;51.218;7.664;2023-12-22T14:06:59;5.78;;;5.28;;
63943;SDS011;50121;51.218;7.664;2023-12-22T14:09:27;6.03;;;5.53;;
63943;SDS011;50121;51.218;7.664;2023-12-22T14:11:58;6.78;;;5.70;;
63943;SDS011;50121;51.218;7.664;2023-12-22T14:14:27;6.80;;;5.72;;
63943;SDS011;50121;51.218;7.664;2023-12-22T14:16:58;6.05;;;5.45;;
63943;SDS011;50121;51.218;7.664;2023-12-22T14:19:26;5.97;;;5.47;;
63943;SDS011;50121;51.218;7.664;2023-12-22T14:21:53;5.72;;;5.13;;
63943;SDS011;50121;51.218;7.664;2023-12-22T14:24:21;5.53;;;5.13;;
63943;SDS011;50121;51.218;7.664;2023-12-22T14:26:52;5.95;;;5.43;;
63943;SDS011;50121;51.218;7.664;2023-12-22T14:29:20;5.60;;;5.10;;
63943;SDS011;50121;51.218;7.664;2023-12-22T14:31:51;6.90;;;6.05;;
63943;SDS011;50121;51.218;7.664;2023-12-22T14:34:19;8.52;;;6.20;;
63943;SDS011;50121;51.218;7.664;2023-12-22T14:36:47;6.97;;;5.75;;
63943;SDS011;50121;51.218;7.664;2023-12-22T14:39:15;6.03;;;5.47;;
63943;SDS011;50121;51.218;7.664;2023-12-22T14:41:42;7.35;;;6.10;;
63943;SDS011;50121;51.218;7.664;2023-12-22T14:44:10;6.90;;;6.30;;
63943;SDS011;50121;51.218;7.664;2023-12-22T14:46:38;11.45;;;6.38;;
63943;SDS011;50121;51.218;7.664;2023-12-22T14:49:07;7.25;;;6.55;;
63943;SDS011;50121;51.218;7.664;2023-12-22T14:51:35;8.32;;;6.32;;
63943;SDS011;50121;51.218;7.664;2023-12-22T14:54:06;8.40;;;5.95;;
63943;SDS011;50121;51.218;7.664;2023-12-22T14:56:38;9.68;;;6.38;;
63943;SDS011;50121;51.218;7.664;2023-12-22T14:59:09;8.68;;;6.15;;
63943;SDS011;50121;51.218;7.664;2023-12-22T15:01:37;7.00;;;6.30;;
63943;SDS011;50121;51.218;7.664;2023-12-22T15:04:05;8.25;;;6.13;;
63943;SDS011;50121;51.218;7.664;2023-12-22T15:06:36;8.80;;;5.60;;
63943;SDS011;50121;51.218;7.664;2023-12-22T15:09:05;6.80;;;6.05;;